createdAt,value
2018-10-01T00:02:16.755Z,5.30
2018-10-01T00:04:45.191Z,5.40
2018-10-01T00:07:13.627Z,5.40
2018-10-01T00:09:42.044Z,5.30
2018-10-01T00:12:10.437Z,5.30
2018-10-01T00:14:38.868Z,5.30
2018-10-01T00:17:07.322Z,5.30
2018-10-01T00:19:41.019Z,5.40
2018-10-01T00:22:14.736Z,5.40
2018-10-01T00:24:43.175Z,5.30
2018-10-01T00:27:11.582Z,5.20
2018-10-01T00:29:39.992Z,5.10
2018-10-01T00:32:08.393Z,5.00
2018-10-01T00:34:36.805Z,4.90
2018-10-01T00:37:05.451Z,4.80
2018-10-01T00:39:33.855Z,4.80
2018-10-01T00:42:02.248Z,4.80
2018-10-01T00:44:30.655Z,4.70
2018-10-01T00:46:59.071Z,4.70
2018-10-01T00:49:27.487Z,4.70
2018-10-01T00:51:55.888Z,4.70
2018-10-01T00:54:24.310Z,4.80
2018-10-01T00:56:52.717Z,4.80
2018-10-01T00:59:21.178Z,4.80
2018-10-01T01:01:49.570Z,4.70
2018-10-01T01:04:17.987Z,4.70
2018-10-01T01:06:46.430Z,4.70
2018-10-01T01:09:14.868Z,4.70
2018-10-01T01:11:43.283Z,4.80
2018-10-01T01:14:11.680Z,4.80
2018-10-01T01:16:40.100Z,4.80
2018-10-01T01:19:08.515Z,4.60
2018-10-01T01:21:36.985Z,4.40
2018-10-01T01:24:05.383Z,4.20
2018-10-01T01:26:33.816Z,4.10
2018-10-01T01:29:02.228Z,4.10
2018-10-01T01:31:30.647Z,4.10
2018-10-01T01:33:59.043Z,4.10
2018-10-01T01:36:27.504Z,4.10
2018-10-01T01:38:55.899Z,4.10
2018-10-01T01:41:24.320Z,4.10
2018-10-01T01:43:52.727Z,4.10
2018-10-01T01:46:21.146Z,4.20
2018-10-01T01:48:49.548Z,4.20
2018-10-01T01:51:17.963Z,4.20
2018-10-01T01:53:46.357Z,4.30
2018-10-01T01:56:14.779Z,4.30
2018-10-01T01:58:43.183Z,4.00
2018-10-01T02:01:11.601Z,3.80
2018-10-01T02:03:39.992Z,3.70
2018-10-01T02:06:08.453Z,3.60
2018-10-01T02:08:37.100Z,3.60
2018-10-01T02:11:05.470Z,3.70
2018-10-01T02:13:33.871Z,3.80
2018-10-01T02:16:02.260Z,3.90
2018-10-01T02:18:30.683Z,3.90
2018-10-01T02:20:59.099Z,3.70
2018-10-01T02:23:27.716Z,3.60
2018-10-01T02:25:56.111Z,3.50
2018-10-01T02:28:24.543Z,3.50
2018-10-01T02:30:52.949Z,3.40
2018-10-01T02:33:21.375Z,3.40
2018-10-01T02:35:49.748Z,3.40
2018-10-01T02:38:18.401Z,3.40
2018-10-01T02:40:46.799Z,3.50
2018-10-01T02:43:15.200Z,3.50
2018-10-01T02:45:43.639Z,3.40
2018-10-01T02:48:12.059Z,3.20
2018-10-01T02:50:40.443Z,3.20
2018-10-01T02:53:14.199Z,3.20
2018-10-01T02:55:42.771Z,3.30
2018-10-01T02:58:11.208Z,3.40
2018-10-01T03:00:39.684Z,3.50
2018-10-01T03:03:08.163Z,3.50
2018-10-01T03:05:36.612Z,3.60
2018-10-01T03:08:05.089Z,3.50
2018-10-01T03:10:33.519Z,3.50
2018-10-01T03:13:01.940Z,3.60
2018-10-01T03:15:30.389Z,3.60
2018-10-01T03:17:58.827Z,3.60
2018-10-01T03:20:27.293Z,3.70
2018-10-01T03:22:55.715Z,3.70
2018-10-01T03:25:24.161Z,3.70
2018-10-01T03:27:52.582Z,3.60
2018-10-01T03:30:21.033Z,3.50
2018-10-01T03:32:49.483Z,3.40
2018-10-01T03:35:17.928Z,3.40
2018-10-01T03:37:46.360Z,3.40
2018-10-01T03:40:14.888Z,3.50
2018-10-01T03:42:43.275Z,3.60
2018-10-01T03:45:11.716Z,3.60
2018-10-01T03:47:40.140Z,3.70
2018-10-01T03:50:08.994Z,3.80
2018-10-01T03:52:37.431Z,3.80
2018-10-01T03:55:05.964Z,3.90
2018-10-01T03:57:34.380Z,3.90
2018-10-01T04:00:02.821Z,3.90
2018-10-01T04:02:31.193Z,4.00
2018-10-01T04:04:59.630Z,4.00
2018-10-01T04:07:28.042Z,4.00
2018-10-01T04:09:56.464Z,4.00
2018-10-01T04:12:24.862Z,4.00
2018-10-01T04:14:53.290Z,3.80
2018-10-01T04:17:21.679Z,3.70
2018-10-01T04:19:50.079Z,3.60
2018-10-01T04:22:22.696Z,3.50
2018-10-01T04:24:51.132Z,3.60
2018-10-01T04:27:19.538Z,3.60
2018-10-01T04:29:47.934Z,3.60
2018-10-01T04:32:16.357Z,3.60
2018-10-01T04:34:44.808Z,3.60
2018-10-01T04:37:13.215Z,3.60
2018-10-01T04:39:41.611Z,3.60
2018-10-01T04:42:09.835Z,3.60
2018-10-01T04:44:38.226Z,3.60
2018-10-01T04:47:06.631Z,3.70
2018-10-01T04:49:35.037Z,3.70
2018-10-01T04:52:03.485Z,3.70
2018-10-01T04:54:31.876Z,3.70
2018-10-01T04:57:00.312Z,3.70
2018-10-01T04:59:28.704Z,3.70
2018-10-01T05:01:57.124Z,3.70
2018-10-01T05:04:25.664Z,3.70
2018-10-01T05:06:54.116Z,3.80
2018-10-01T05:09:22.576Z,3.80
2018-10-01T05:11:51.020Z,3.80
2018-10-01T05:14:19.472Z,3.70
2018-10-01T05:16:47.993Z,3.70
2018-10-01T05:19:16.569Z,3.80
2018-10-01T05:21:45.055Z,3.80
2018-10-01T05:24:13.504Z,3.80
2018-10-01T05:26:41.931Z,3.90
2018-10-01T05:29:10.427Z,3.90
2018-10-01T05:31:38.921Z,3.90
2018-10-01T05:34:07.401Z,4.00
2018-10-01T05:36:35.895Z,4.00
2018-10-01T05:39:07.079Z,4.00
2018-10-01T05:41:35.519Z,3.90
2018-10-01T05:44:03.976Z,3.80
2018-10-01T05:46:32.412Z,3.80
2018-10-01T05:49:01.116Z,3.80
2018-10-01T05:51:29.715Z,3.90
2018-10-01T05:53:58.143Z,4.10
2018-10-01T05:56:26.564Z,4.30
2018-10-01T05:58:54.984Z,4.50
2018-10-01T06:01:23.455Z,4.70
2018-10-01T06:03:52.046Z,5.00
2018-10-01T06:06:20.565Z,5.20
2018-10-01T06:08:48.999Z,5.50
2018-10-01T06:11:17.406Z,5.70
2018-10-01T06:13:45.849Z,5.90
2018-10-01T06:16:14.329Z,6.10
2018-10-01T06:18:42.783Z,6.20
2018-10-01T06:21:11.216Z,6.20
2018-10-01T06:23:39.681Z,6.40
2018-10-01T06:26:08.163Z,6.60
2018-10-01T06:28:36.616Z,6.80
2018-10-01T06:31:05.077Z,7.10
2018-10-01T06:33:33.480Z,7.30
2018-10-01T06:36:01.897Z,7.50
2018-10-01T06:38:30.571Z,7.70
2018-10-01T06:40:59.004Z,7.80
2018-10-01T06:43:27.432Z,7.80
2018-10-01T06:45:55.855Z,7.90
2018-10-01T06:48:24.304Z,8.10
2018-10-01T06:50:52.777Z,8.40
2018-10-01T06:53:21.159Z,8.60
2018-10-01T06:55:49.642Z,8.70
2018-10-01T06:58:18.049Z,8.70
2018-10-01T07:00:46.488Z,8.80
2018-10-01T07:03:14.876Z,8.90
2018-10-01T07:05:43.337Z,9.00
2018-10-01T07:08:11.751Z,9.20
2018-10-01T07:10:40.186Z,9.30
2018-10-01T07:13:08.674Z,9.40
2018-10-01T07:15:37.115Z,9.50
2018-10-01T07:18:05.548Z,9.50
2018-10-01T07:20:34.007Z,9.60
2018-10-01T07:23:02.426Z,9.60
2018-10-01T07:25:30.864Z,9.70
2018-10-01T07:27:59.276Z,9.80
2018-10-01T07:30:27.676Z,9.90
2018-10-01T07:32:56.092Z,10.10
2018-10-01T07:35:24.504Z,10.10
2018-10-01T07:37:52.928Z,10.10
2018-10-01T07:40:21.345Z,10.20
2018-10-01T07:42:49.767Z,10.30
2018-10-01T07:45:18.292Z,10.30
2018-10-01T07:47:46.760Z,10.30
2018-10-01T07:50:15.201Z,10.30
2018-10-01T07:52:43.647Z,10.40
2018-10-01T07:55:12.065Z,10.40
2018-10-01T07:57:40.529Z,10.40
2018-10-01T08:00:09.129Z,10.40
2018-10-01T08:02:37.569Z,10.40
2018-10-01T08:05:06.124Z,10.50
2018-10-01T08:07:34.548Z,10.60
2018-10-01T08:10:02.989Z,10.70
2018-10-01T08:12:31.419Z,10.70
2018-10-01T08:14:59.815Z,10.70
2018-10-01T08:17:28.279Z,10.90
2018-10-01T08:19:56.716Z,11.20
2018-10-01T08:22:25.131Z,11.30
2018-10-01T08:24:53.547Z,11.40
2018-10-01T08:27:21.956Z,11.60
2018-10-01T08:29:50.493Z,11.90
2018-10-01T08:32:18.821Z,12.10
2018-10-01T08:34:47.240Z,12.20
2018-10-01T08:37:16.612Z,12.30
2018-10-01T08:39:45.024Z,12.40
2018-10-01T08:42:13.429Z,12.50
2018-10-01T08:44:41.840Z,12.70
2018-10-01T08:47:10.277Z,12.60
2018-10-01T08:49:47.657Z,12.60
2018-10-01T08:52:33.629Z,12.60
2018-10-01T08:55:02.130Z,12.80
2018-10-01T08:57:30.565Z,13.00
2018-10-01T08:59:59.034Z,13.00
2018-10-01T09:02:27.467Z,13.10
2018-10-01T09:04:55.936Z,13.20
2018-10-01T09:07:24.365Z,13.10
2018-10-01T09:09:52.812Z,12.90
2018-10-01T09:12:21.229Z,12.80
2018-10-01T09:14:49.692Z,13.00
2018-10-01T09:17:18.140Z,13.20
2018-10-01T09:19:46.617Z,13.30
2018-10-01T09:22:15.053Z,13.40
2018-10-01T09:24:43.517Z,13.30
2018-10-01T09:27:11.965Z,13.40
2018-10-01T09:29:40.462Z,13.50
2018-10-01T09:32:08.930Z,13.60
2018-10-01T09:34:37.378Z,13.60
2018-10-01T09:37:05.828Z,13.60
2018-10-01T09:39:34.312Z,13.70
2018-10-01T09:42:02.820Z,13.80
2018-10-01T09:44:31.324Z,14.20
2018-10-01T09:46:59.726Z,14.30
2018-10-01T09:49:28.212Z,14.50
2018-10-01T09:51:56.687Z,14.80
2018-10-01T09:54:25.180Z,14.40
2018-10-01T09:56:54.026Z,14.20
2018-10-01T09:59:22.593Z,14.00
2018-10-01T10:01:51.052Z,13.90
2018-10-01T10:04:19.579Z,13.90
2018-10-01T10:06:48.024Z,13.90
2018-10-01T10:09:16.485Z,13.70
2018-10-01T10:11:44.945Z,13.80
2018-10-01T10:14:13.540Z,13.70
2018-10-01T10:16:41.867Z,13.50
2018-10-01T10:19:10.252Z,13.60
2018-10-01T10:21:38.683Z,13.70
2018-10-01T10:24:07.176Z,14.00
2018-10-01T10:26:35.655Z,14.40
2018-10-01T10:29:04.069Z,14.70
2018-10-01T10:31:32.514Z,15.40
2018-10-01T10:34:00.946Z,16.20
2018-10-01T10:36:29.459Z,16.80
2018-10-01T10:38:57.936Z,17.30
2018-10-01T10:41:26.368Z,17.10
2018-10-01T10:43:54.823Z,16.70
2018-10-01T10:46:23.280Z,16.40
2018-10-01T10:48:51.718Z,16.70
2018-10-01T10:51:20.142Z,17.10
2018-10-01T10:53:48.585Z,17.40
2018-10-01T10:56:17.041Z,17.70
2018-10-01T10:58:45.462Z,17.10
2018-10-01T11:01:13.893Z,16.70
2018-10-01T11:03:42.304Z,16.10
2018-10-01T11:06:10.746Z,15.60
2018-10-01T11:08:39.224Z,15.80
2018-10-01T11:11:07.618Z,15.90
2018-10-01T11:13:36.040Z,15.90
2018-10-01T11:16:04.488Z,16.00
2018-10-01T11:18:32.927Z,15.60
2018-10-01T11:21:01.526Z,15.70
2018-10-01T11:23:29.864Z,16.10
2018-10-01T11:25:58.325Z,15.90
2018-10-01T11:28:26.724Z,16.20
2018-10-01T11:30:55.151Z,16.20
2018-10-01T11:33:23.689Z,16.80
2018-10-01T11:35:52.042Z,17.30
2018-10-01T11:38:20.449Z,17.40
2018-10-01T11:40:48.921Z,17.60
2018-10-01T11:43:17.319Z,17.40
2018-10-01T11:45:45.888Z,17.00
2018-10-01T11:48:14.188Z,16.10
2018-10-01T11:50:42.620Z,15.40
2018-10-01T11:53:11.084Z,14.90
2018-10-01T11:55:39.504Z,14.70
2018-10-01T11:58:07.947Z,14.70
2018-10-01T12:00:36.400Z,14.90
2018-10-01T12:03:04.937Z,15.40
2018-10-01T12:05:33.280Z,15.80
2018-10-01T12:08:01.716Z,16.00
2018-10-01T12:10:30.170Z,16.40
2018-10-01T12:12:58.584Z,16.70
2018-10-01T12:15:27.050Z,15.70
2018-10-01T12:17:55.441Z,15.10
2018-10-01T12:20:24.480Z,14.80
2018-10-01T12:22:52.908Z,14.60
2018-10-01T12:25:21.374Z,14.10
2018-10-01T12:27:49.820Z,13.80
2018-10-01T12:30:18.224Z,13.90
2018-10-01T12:32:46.665Z,13.90
2018-10-01T12:35:15.083Z,13.80
2018-10-01T12:37:43.538Z,13.60
2018-10-01T12:40:11.960Z,13.40
2018-10-01T12:42:40.435Z,13.20
2018-10-01T12:45:08.917Z,13.30
2018-10-01T12:47:37.604Z,13.70
2018-10-01T12:50:06.109Z,14.00
2018-10-01T12:52:34.673Z,14.00
2018-10-01T12:55:03.181Z,14.10
2018-10-01T12:57:31.655Z,14.30
2018-10-01T13:00:00.446Z,14.40
2018-10-01T13:02:28.868Z,14.70
2018-10-01T13:04:57.290Z,14.90
2018-10-01T13:07:27.535Z,15.30
2018-10-01T13:09:55.980Z,15.60
2018-10-01T13:12:24.447Z,15.80
2018-10-01T13:14:52.854Z,16.00
2018-10-01T13:17:21.285Z,16.20
2018-10-01T13:19:49.695Z,16.30
2018-10-01T13:22:18.115Z,16.00
2018-10-01T13:24:46.658Z,16.10
2018-10-01T13:27:14.976Z,16.20
2018-10-01T13:29:43.380Z,16.30
2018-10-01T13:32:11.805Z,16.40
2018-10-01T13:34:40.232Z,16.20
2018-10-01T13:37:08.629Z,15.80
2018-10-01T13:39:37.096Z,15.90
2018-10-01T13:42:05.540Z,16.00
2018-10-01T13:44:34.006Z,16.20
2018-10-01T13:47:02.432Z,16.20
2018-10-01T13:49:31.876Z,16.30
2018-10-01T13:52:00.351Z,16.10
2018-10-01T13:54:28.906Z,15.80
2018-10-01T13:56:57.287Z,15.90
2018-10-01T13:59:25.720Z,16.00
2018-10-01T14:01:54.230Z,16.00
2018-10-01T14:04:22.603Z,15.90
2018-10-01T14:06:51.033Z,15.60
2018-10-01T14:09:19.506Z,15.10
2018-10-01T14:11:47.923Z,14.80
2018-10-01T14:14:16.416Z,14.60
2018-10-01T14:16:44.833Z,14.80
2018-10-01T14:19:13.329Z,15.10
2018-10-01T14:21:41.732Z,15.20
2018-10-01T14:24:10.267Z,15.40
2018-10-01T14:26:38.683Z,15.20
2018-10-01T14:29:07.125Z,15.00
2018-10-01T14:31:35.538Z,14.90
2018-10-01T14:34:03.988Z,14.80
2018-10-01T14:36:32.422Z,14.70
2018-10-01T14:39:00.932Z,14.60
2018-10-01T14:41:29.347Z,14.60
2018-10-01T14:43:57.776Z,14.50
2018-10-01T14:46:26.196Z,14.40
2018-10-01T14:48:54.629Z,14.40
2018-10-01T14:51:23.151Z,14.20
2018-10-01T14:53:51.562Z,14.20
2018-10-01T14:56:19.973Z,14.20
2018-10-01T14:58:48.432Z,14.20
2018-10-01T15:01:16.878Z,14.20
2018-10-01T15:03:45.338Z,14.20
2018-10-01T15:06:13.798Z,14.20
2018-10-01T15:08:42.214Z,14.20
2018-10-01T15:11:10.619Z,14.30
2018-10-01T15:13:39.059Z,14.30
2018-10-01T15:16:07.574Z,14.40
2018-10-01T15:18:36.028Z,14.30
2018-10-01T15:21:04.437Z,14.40
2018-10-01T15:23:32.872Z,14.30
2018-10-01T15:26:01.315Z,14.30
2018-10-01T15:28:29.747Z,14.30
2018-10-01T15:30:58.193Z,14.30
2018-10-01T15:33:26.609Z,14.20
2018-10-01T15:35:55.077Z,14.10
2018-10-01T15:38:23.473Z,14.10
2018-10-01T15:40:51.901Z,14.00
2018-10-01T15:43:20.324Z,14.00
2018-10-01T15:45:48.731Z,13.80
2018-10-01T15:48:17.192Z,13.80
2018-10-01T15:50:45.854Z,13.90
2018-10-01T15:53:14.421Z,14.00
2018-10-01T15:55:42.883Z,13.90
2018-10-01T15:58:11.245Z,13.40
2018-10-01T16:00:39.710Z,13.00
2018-10-01T16:03:08.187Z,12.50
2018-10-01T16:05:36.622Z,12.30
2018-10-01T16:08:05.048Z,12.40
2018-10-01T16:10:33.481Z,12.10
2018-10-01T16:13:01.865Z,11.60
2018-10-01T16:15:30.274Z,11.10
2018-10-01T16:17:58.787Z,10.90
2018-10-01T16:20:27.215Z,10.70
2018-10-01T16:25:29.413Z,10.40
2018-10-01T16:27:57.767Z,10.20
2018-10-01T16:30:26.188Z,10.00
2018-10-01T16:32:54.566Z,9.80
2018-10-01T16:35:22.992Z,9.80
2018-10-01T16:37:51.553Z,9.80
2018-10-01T16:40:20.015Z,9.70
2018-10-01T16:45:22.080Z,9.70
2018-10-01T16:47:50.484Z,9.70
2018-10-01T16:50:18.961Z,9.60
2018-10-01T16:52:47.365Z,9.60
2018-10-01T16:55:15.830Z,9.60
2018-10-01T16:57:44.251Z,9.60
2018-10-01T17:00:12.647Z,9.50
2018-10-01T17:02:41.432Z,9.40
2018-10-01T17:05:09.839Z,9.40
2018-10-01T17:07:38.256Z,9.40
2018-10-01T17:10:06.681Z,9.40
2018-10-01T17:12:35.104Z,9.30
2018-10-01T17:15:03.617Z,9.20
2018-10-01T17:17:32.051Z,9.20
2018-10-01T17:20:00.464Z,9.20
2018-10-01T17:22:28.892Z,9.20
2018-10-01T17:24:57.304Z,9.20
2018-10-01T17:27:25.742Z,9.20
2018-10-01T17:29:54.169Z,9.10
2018-10-01T17:32:22.599Z,9.10
2018-10-01T17:34:51.005Z,9.10
2018-10-01T17:37:19.443Z,9.10
2018-10-01T17:39:47.859Z,9.10
2018-10-01T17:42:16.296Z,9.10
2018-10-01T17:44:44.733Z,9.00
2018-10-01T17:47:13.156Z,9.00
2018-10-01T17:49:41.553Z,9.00
2018-10-01T17:52:09.993Z,9.00
2018-10-01T17:54:38.467Z,9.00
2018-10-01T17:57:06.876Z,9.00
2018-10-01T17:59:35.275Z,8.90
2018-10-01T18:02:03.754Z,8.90
2018-10-01T18:04:32.177Z,8.80
2018-10-01T18:07:01.238Z,8.70
2018-10-01T18:09:29.681Z,8.70
2018-10-01T18:11:59.347Z,8.70
2018-10-01T18:14:27.860Z,8.60
2018-10-01T18:16:56.295Z,8.60
2018-10-01T18:19:24.688Z,8.60
2018-10-01T18:21:53.143Z,8.50
2018-10-01T18:24:21.594Z,8.50
2018-10-01T18:26:50.005Z,8.40
2018-10-01T18:29:18.421Z,8.40
2018-10-01T18:31:46.897Z,8.40
2018-10-01T18:34:15.310Z,8.40
2018-10-01T18:36:43.748Z,8.30
2018-10-01T18:39:18.843Z,8.30
2018-10-01T18:41:48.166Z,8.20
2018-10-01T18:44:16.608Z,8.20
2018-10-01T18:46:46.107Z,8.10
2018-10-01T18:49:14.672Z,8.10
2018-10-01T18:51:43.137Z,8.10
2018-10-01T18:54:11.651Z,8.10
2018-10-01T18:56:40.143Z,8.00
2018-10-01T18:59:08.904Z,8.00
2018-10-01T19:01:37.440Z,8.00
2018-10-01T19:04:05.876Z,7.80
2018-10-01T19:06:34.285Z,7.80
2018-10-01T19:09:02.788Z,7.70
2018-10-01T19:11:31.269Z,7.70
2018-10-01T19:13:59.716Z,7.70
2018-10-01T19:16:28.196Z,7.70
2018-10-01T19:18:56.655Z,7.70
2018-10-01T19:21:25.088Z,7.70
2018-10-01T19:23:53.578Z,7.70
2018-10-01T19:26:21.947Z,7.60
2018-10-01T19:28:50.388Z,7.60
2018-10-01T19:31:19.661Z,7.60
2018-10-01T19:33:48.199Z,7.50
2018-10-01T19:36:16.660Z,7.50
2018-10-01T19:38:45.148Z,7.50
2018-10-01T19:41:13.674Z,7.40
2018-10-01T19:43:42.029Z,7.40
2018-10-01T19:46:10.493Z,7.40
2018-10-01T19:48:38.972Z,7.40
2018-10-01T19:51:07.965Z,7.40
2018-10-01T19:53:38.840Z,7.40
2018-10-01T19:56:07.626Z,7.30
2018-10-01T19:58:36.546Z,7.30
2018-10-01T20:01:04.972Z,7.30
2018-10-01T20:03:33.461Z,7.20
2018-10-01T20:06:01.881Z,7.20
2018-10-01T20:08:30.328Z,7.20
2018-10-01T20:10:58.779Z,7.10
2018-10-01T20:13:27.145Z,7.10
2018-10-01T20:15:55.604Z,7.00
2018-10-01T20:18:23.982Z,7.00
2018-10-01T20:20:52.426Z,7.00
2018-10-01T20:23:20.900Z,7.00
2018-10-01T20:25:49.413Z,7.00
2018-10-01T20:28:18.045Z,6.90
2018-10-01T20:30:46.323Z,6.90
2018-10-01T20:33:14.722Z,6.90
2018-10-01T20:35:44.163Z,6.90
2018-10-01T20:38:12.523Z,6.80
2018-10-01T20:40:40.950Z,6.70
2018-10-01T20:43:09.348Z,6.60
2018-10-01T20:45:37.742Z,6.50
2018-10-01T20:48:06.321Z,6.50
2018-10-01T20:50:34.700Z,6.50
2018-10-01T20:53:03.203Z,6.60
2018-10-01T20:55:31.535Z,6.60
2018-10-01T20:57:59.940Z,6.60
2018-10-01T21:00:28.348Z,6.60
2018-10-01T21:02:56.760Z,6.60
2018-10-01T21:05:25.226Z,6.70
2018-10-01T21:07:53.923Z,6.70
2018-10-01T21:10:22.359Z,6.80
2018-10-01T21:12:51.046Z,6.80
2018-10-01T21:15:19.513Z,6.80
2018-10-01T21:17:47.908Z,6.80
2018-10-01T21:20:16.355Z,6.80
2018-10-01T21:22:44.828Z,6.80
2018-10-01T21:25:13.236Z,6.70
2018-10-01T21:27:41.695Z,6.70
2018-10-01T21:30:10.196Z,6.60
2018-10-01T21:32:38.612Z,6.60
2018-10-01T21:35:07.039Z,6.50
2018-10-01T21:37:35.469Z,6.40
2018-10-01T21:40:11.773Z,6.40
2018-10-01T21:42:40.208Z,6.40
2018-10-01T21:45:09.396Z,6.40
2018-10-01T21:47:37.855Z,6.40
2018-10-01T21:50:06.324Z,6.40
2018-10-01T21:52:34.763Z,6.40
2018-10-01T21:55:03.217Z,6.40
2018-10-01T21:57:31.651Z,6.40
2018-10-01T22:00:00.116Z,6.50
2018-10-01T22:02:28.635Z,6.40
2018-10-01T22:04:57.041Z,6.40
2018-10-01T22:07:25.468Z,6.40
2018-10-01T22:09:53.879Z,6.50
2018-10-01T22:12:22.288Z,6.50
2018-10-01T22:14:50.693Z,6.60
2018-10-01T22:17:19.135Z,6.60
2018-10-01T22:19:47.542Z,6.60
2018-10-01T22:22:15.960Z,6.60
2018-10-01T22:24:44.352Z,6.60
2018-10-01T22:27:12.771Z,6.60
2018-10-01T22:29:41.182Z,6.70
2018-10-01T22:32:09.612Z,6.70
2018-10-01T22:34:38.008Z,6.70
2018-10-01T22:37:06.483Z,6.80
2018-10-01T22:39:34.925Z,6.80
2018-10-01T22:42:03.340Z,6.70
2018-10-01T22:44:31.746Z,6.60
2018-10-01T22:47:00.148Z,6.50
2018-10-01T22:49:28.552Z,6.40
2018-10-01T22:51:56.977Z,6.20
2018-10-01T22:54:25.398Z,6.20
2018-10-01T22:56:53.804Z,6.20
2018-10-01T22:59:22.249Z,6.20
2018-10-01T23:01:50.645Z,6.30
2018-10-01T23:04:19.071Z,6.30
2018-10-01T23:06:47.510Z,6.30
2018-10-01T23:09:15.947Z,6.30
2018-10-01T23:11:44.356Z,6.30
2018-10-01T23:14:12.846Z,6.30
2018-10-01T23:16:41.272Z,6.20
2018-10-01T23:19:09.702Z,6.20
2018-10-01T23:21:38.168Z,6.20
2018-10-01T23:24:06.629Z,6.20
2018-10-01T23:26:35.033Z,6.20
2018-10-01T23:29:03.488Z,6.20
2018-10-01T23:31:31.923Z,6.20
2018-10-01T23:34:00.363Z,6.20
2018-10-01T23:36:28.765Z,6.20
2018-10-01T23:38:57.202Z,6.20
2018-10-01T23:41:25.607Z,6.30
2018-10-01T23:43:54.021Z,6.30
2018-10-01T23:46:22.448Z,6.30
2018-10-01T23:48:50.876Z,6.30
2018-10-01T23:51:19.304Z,6.40
2018-10-01T23:53:47.716Z,6.40
2018-10-01T23:56:16.161Z,6.40
2018-10-01T23:58:44.585Z,6.30
